TAM8520 SBRF-GVAC
Flight info
| Callsign | TAM8520 |
|---|---|
| Flight time | 3h 38m |
| Altitude | 39000 |
| Route | FNR UN857 BOTNO/N0482F400 DCT SNT DCT AMDER AMDER1F |
| Aircraft | B789/H-SDE1E2E3FGHIJ2J3J4J5M1RWXY/LB1D1 |
Departure
| Time | 2026-04-25 19:11 |
|---|---|
| Airport | Recife/Guararapes - Gilberto Freyre International Airport (SBRF) |
Arrival
| Time | 2026-04-25 22:49 |
|---|---|
| Airport | Amílcar Cabral International Airport (GVAC) |
| Time | Latitude | Longitude | Altitude | Speed | Heading |
|---|---|---|---|---|---|
| 2026-04-25 18:52 | -8.13145 | -34.91930 | 27 ft | 0 kts | 72° |
| 2026-04-25 19:01 | -8.13149 | -34.91944 | 48 ft | 4 kts | 72° |
| 2026-04-25 19:01 | -8.13158 | -34.91970 | 50 ft | 4 kts | 71° |
| 2026-04-25 19:01 | -8.13166 | -34.91987 | 45 ft | 2 kts | 30° |
| 2026-04-25 19:02 | -8.13181 | -34.91987 | 46 ft | 0 kts | 342° |
| 2026-04-25 19:04 | -8.13178 | -34.91988 | 46 ft | 0 kts | 342° |
| 2026-04-25 19:04 | -8.13167 | -34.91991 | 50 ft | 5 kts | 342° |
| 2026-04-25 19:05 | -8.13044 | -34.92031 | 50 ft | 10 kts | 342° |
| 2026-04-25 19:05 | -8.12908 | -34.92076 | 48 ft | 12 kts | 342° |
| 2026-04-25 19:05 | -8.12810 | -34.92109 | 47 ft | 18 kts | 342° |
| 2026-04-25 19:06 | -8.12681 | -34.92151 | 53 ft | 21 kts | 342° |
| 2026-04-25 19:06 | -8.12313 | -34.92272 | 47 ft | 32 kts | 342° |
| 2026-04-25 19:06 | -8.12098 | -34.92344 | 48 ft | 33 kts | 342° |
| 2026-04-25 19:07 | -8.11680 | -34.92481 | 46 ft | 17 kts | 342° |
| 2026-04-25 19:07 | -8.11628 | -34.92502 | 48 ft | 0 kts | 331° |
| 2026-04-25 19:08 | -8.11615 | -34.92509 | 47 ft | 6 kts | 330° |
| 2026-04-25 19:09 | -8.11446 | -34.92679 | 50 ft | 2 kts | 251° |
| 2026-04-25 19:09 | -8.11449 | -34.92684 | 50 ft | 4 kts | 242° |
| 2026-04-25 19:09 | -8.11519 | -34.92685 | 49 ft | 2 kts | 162° |
| 2026-04-25 19:10 | -8.11525 | -34.92683 | 50 ft | 0 kts | 162° |
| 2026-04-25 19:10 | -8.11668 | -34.92638 | 49 ft | 63 kts | 162° |
| 2026-04-25 19:10 | -8.12362 | -34.92407 | 52 ft | 145 kts | 162° |
| 2026-04-25 19:10 | -8.13529 | -34.92014 | 268 ft | 194 kts | 158° |
| 2026-04-25 19:11 | -8.14789 | -34.91614 | 1495 ft | 179 kts | 165° |
| 2026-04-25 19:11 | -8.15999 | -34.91237 | 2390 ft | 194 kts | 161° |
| 2026-04-25 19:11 | -8.17354 | -34.90788 | 3146 ft | 208 kts | 161° |
| 2026-04-25 19:11 | -8.18729 | -34.90335 | 4190 ft | 209 kts | 161° |
| 2026-04-25 19:12 | -8.20105 | -34.89795 | 4858 ft | 229 kts | 148° |
| 2026-04-25 19:12 | -8.21228 | -34.88500 | 4873 ft | 264 kts | 114° |
| 2026-04-25 19:12 | -8.21466 | -34.86680 | 4897 ft | 267 kts | 82° |
| 2026-04-25 19:12 | -8.20659 | -34.84975 | 4923 ft | 277 kts | 55° |
| 2026-04-25 19:13 | -8.19439 | -34.83456 | 4916 ft | 276 kts | 52° |
| 2026-04-25 19:13 | -8.18185 | -34.81977 | 4914 ft | 278 kts | 53° |
| 2026-04-25 19:13 | -8.17371 | -34.80981 | 4915 ft | 277 kts | 53° |
| 2026-04-25 19:13 | -8.15759 | -34.78952 | 4915 ft | 277 kts | 54° |
| 2026-04-25 19:14 | -8.14958 | -34.77947 | 4915 ft | 278 kts | 54° |
| 2026-04-25 19:14 | -8.14132 | -34.76919 | 4918 ft | 278 kts | 53° |
| 2026-04-25 19:14 | -8.12112 | -34.74411 | 4918 ft | 277 kts | 53° |
| 2026-04-25 19:14 | -8.11309 | -34.73411 | 4919 ft | 277 kts | 53° |
| 2026-04-25 19:15 | -8.10094 | -34.71897 | 4921 ft | 278 kts | 53° |
| 2026-04-25 19:15 | -8.08883 | -34.70376 | 4917 ft | 277 kts | 56° |
| 2026-04-25 19:15 | -8.07761 | -34.68768 | 5623 ft | 276 kts | 54° |
| 2026-04-25 19:15 | -8.06555 | -34.67264 | 6832 ft | 280 kts | 54° |
| 2026-04-25 19:16 | -8.05353 | -34.65686 | 7897 ft | 285 kts | 56° |
| 2026-04-25 19:16 | -8.04161 | -34.64063 | 8981 ft | 290 kts | 56° |
| 2026-04-25 19:16 | -8.02939 | -34.62416 | 10037 ft | 296 kts | 55° |
| 2026-04-25 19:16 | -8.01670 | -34.60722 | 10589 ft | 319 kts | 54° |
| 2026-04-25 19:17 | -8.00273 | -34.58855 | 10967 ft | 347 kts | 55° |
| 2026-04-25 19:17 | -7.98798 | -34.56884 | 11794 ft | 353 kts | 54° |
| 2026-04-25 19:17 | -7.97310 | -34.54896 | 12887 ft | 356 kts | 54° |
| 2026-04-25 19:17 | -7.95812 | -34.52890 | 13871 ft | 360 kts | 54° |
| 2026-04-25 19:18 | -7.94228 | -34.50914 | 14738 ft | 366 kts | 44° |
| 2026-04-25 19:18 | -7.92127 | -34.49441 | 15602 ft | 373 kts | 30° |
| 2026-04-25 19:18 | -7.89808 | -34.48221 | 16441 ft | 378 kts | 28° |
| 2026-04-25 19:18 | -7.87431 | -34.47046 | 17280 ft | 383 kts | 28° |
| 2026-04-25 19:19 | -7.85029 | -34.45837 | 18102 ft | 388 kts | 28° |
| 2026-04-25 19:19 | -7.82614 | -34.44584 | 18812 ft | 392 kts | 29° |
| 2026-04-25 19:19 | -7.80176 | -34.43322 | 19492 ft | 397 kts | 29° |
| 2026-04-25 19:19 | -7.78529 | -34.42481 | 19924 ft | 400 kts | 29° |
| 2026-04-25 19:20 | -7.75204 | -34.40788 | 20828 ft | 406 kts | 29° |
| 2026-04-25 19:20 | -7.72667 | -34.39487 | 21475 ft | 411 kts | 29° |
| 2026-04-25 19:20 | -7.70104 | -34.38170 | 22107 ft | 415 kts | 30° |
| 2026-04-25 19:20 | -7.67511 | -34.36843 | 22731 ft | 420 kts | 30° |
| 2026-04-25 19:21 | -7.64899 | -34.35507 | 23330 ft | 424 kts | 30° |
| 2026-04-25 19:21 | -7.59581 | -34.32785 | 24341 ft | 432 kts | 30° |
| 2026-04-25 19:21 | -7.56889 | -34.31407 | 24826 ft | 436 kts | 30° |
| 2026-04-25 19:22 | -7.54203 | -34.30034 | 25286 ft | 440 kts | 29° |
| 2026-04-25 19:22 | -7.51457 | -34.28629 | 25767 ft | 444 kts | 29° |
| 2026-04-25 19:22 | -7.45885 | -34.25779 | 26681 ft | 453 kts | 29° |
| 2026-04-25 19:23 | -7.43061 | -34.24335 | 27122 ft | 457 kts | 29° |
| 2026-04-25 19:23 | -7.37348 | -34.21414 | 27991 ft | 465 kts | 28° |
| 2026-04-25 19:23 | -7.34449 | -34.19932 | 28418 ft | 469 kts | 28° |
| 2026-04-25 19:24 | -7.31526 | -34.18439 | 28837 ft | 472 kts | 28° |
| 2026-04-25 19:24 | -7.28580 | -34.16933 | 29258 ft | 476 kts | 28° |
| 2026-04-25 19:24 | -7.22633 | -34.13895 | 30046 ft | 483 kts | 28° |
| 2026-04-25 19:25 | -7.16654 | -34.10842 | 30830 ft | 486 kts | 28° |
| 2026-04-25 19:25 | -7.13634 | -34.09300 | 31219 ft | 487 kts | 28° |
| 2026-04-25 19:25 | -7.10608 | -34.07755 | 31589 ft | 488 kts | 28° |
| 2026-04-25 19:26 | -7.07577 | -34.06208 | 31975 ft | 488 kts | 28° |
| 2026-04-25 19:26 | -7.04545 | -34.04661 | 32340 ft | 489 kts | 28° |
| 2026-04-25 19:26 | -7.01507 | -34.03110 | 32713 ft | 489 kts | 28° |
| 2026-04-25 19:26 | -6.98465 | -34.01558 | 33063 ft | 490 kts | 28° |
| 2026-04-25 19:27 | -6.95427 | -34.00008 | 33368 ft | 491 kts | 28° |
| 2026-04-25 19:27 | -6.93398 | -33.98973 | 33595 ft | 492 kts | 28° |
| 2026-04-25 19:27 | -6.89312 | -33.96889 | 33982 ft | 493 kts | 28° |
| 2026-04-25 19:27 | -6.86245 | -33.95325 | 34281 ft | 493 kts | 28° |
| 2026-04-25 19:28 | -6.83196 | -33.93771 | 34648 ft | 491 kts | 28° |
| 2026-04-25 19:28 | -6.80145 | -33.92216 | 34995 ft | 490 kts | 28° |
| 2026-04-25 19:28 | -6.77103 | -33.90665 | 35326 ft | 490 kts | 27° |
| 2026-04-25 19:28 | -6.74072 | -33.89120 | 35663 ft | 489 kts | 27° |
| 2026-04-25 19:29 | -6.71036 | -33.87574 | 35991 ft | 488 kts | 27° |
| 2026-04-25 19:29 | -6.68005 | -33.86029 | 36309 ft | 488 kts | 27° |
| 2026-04-25 19:29 | -6.65016 | -33.84506 | 36599 ft | 487 kts | 27° |
| 2026-04-25 19:29 | -6.61997 | -33.82969 | 36880 ft | 487 kts | 27° |
| 2026-04-25 19:30 | -6.58968 | -33.81426 | 37174 ft | 487 kts | 27° |
| 2026-04-25 19:30 | -6.55942 | -33.79885 | 37469 ft | 487 kts | 27° |
| 2026-04-25 19:30 | -6.52920 | -33.78346 | 37770 ft | 486 kts | 27° |
| 2026-04-25 19:30 | -6.49901 | -33.76810 | 38065 ft | 485 kts | 28° |
| 2026-04-25 19:31 | -6.46883 | -33.75274 | 38331 ft | 485 kts | 28° |
| 2026-04-25 19:31 | -6.43869 | -33.73739 | 38615 ft | 485 kts | 28° |
| 2026-04-25 19:31 | -6.40856 | -33.72206 | 38828 ft | 485 kts | 28° |
| 2026-04-25 19:31 | -6.37878 | -33.70691 | 38899 ft | 488 kts | 28° |
| 2026-04-25 19:32 | -6.31817 | -33.67608 | 38900 ft | 485 kts | 28° |
| 2026-04-25 19:32 | -6.26792 | -33.65053 | 38900 ft | 483 kts | 28° |
| 2026-04-25 19:33 | -6.19822 | -33.61508 | 38898 ft | 482 kts | 28° |
| 2026-04-25 19:33 | -6.13847 | -33.58472 | 38901 ft | 481 kts | 28° |
| 2026-04-25 19:34 | -6.07876 | -33.55437 | 38901 ft | 480 kts | 28° |
| 2026-04-25 19:34 | -6.01917 | -33.52410 | 38892 ft | 478 kts | 28° |
| 2026-04-25 19:35 | -5.96017 | -33.49413 | 38900 ft | 478 kts | 28° |
| 2026-04-25 19:35 | -5.90064 | -33.46390 | 38898 ft | 478 kts | 28° |
| 2026-04-25 19:36 | -5.84124 | -33.43375 | 38898 ft | 477 kts | 28° |
| 2026-04-25 19:36 | -5.78198 | -33.40367 | 38899 ft | 477 kts | 28° |
| 2026-04-25 19:37 | -5.72276 | -33.37362 | 38904 ft | 477 kts | 27° |
| 2026-04-25 19:37 | -5.66336 | -33.34348 | 38903 ft | 477 kts | 27° |
| 2026-04-25 19:38 | -5.60422 | -33.31349 | 38905 ft | 477 kts | 27° |
| 2026-04-25 19:38 | -5.54493 | -33.28342 | 38903 ft | 477 kts | 27° |
| 2026-04-25 19:39 | -5.48615 | -33.25362 | 38903 ft | 476 kts | 27° |
| 2026-04-25 19:39 | -5.42686 | -33.22357 | 38908 ft | 477 kts | 27° |
| 2026-04-25 19:40 | -5.36752 | -33.19350 | 38911 ft | 477 kts | 27° |
| 2026-04-25 19:40 | -5.30818 | -33.16344 | 38915 ft | 478 kts | 27° |
| 2026-04-25 19:41 | -5.24873 | -33.13333 | 38914 ft | 478 kts | 27° |
| 2026-04-25 19:41 | -5.20902 | -33.11321 | 38912 ft | 478 kts | 27° |
| 2026-04-25 19:42 | -5.13009 | -33.07325 | 38913 ft | 477 kts | 27° |
| 2026-04-25 19:42 | -5.07091 | -33.04329 | 38919 ft | 476 kts | 27° |
| 2026-04-25 19:43 | -5.01178 | -33.01337 | 38914 ft | 476 kts | 27° |
| 2026-04-25 19:43 | -4.95268 | -32.98347 | 38914 ft | 474 kts | 27° |
| 2026-04-25 19:44 | -4.89402 | -32.95379 | 38911 ft | 475 kts | 27° |
| 2026-04-25 19:44 | -4.83504 | -32.92396 | 38913 ft | 475 kts | 27° |
| 2026-04-25 19:45 | -4.77588 | -32.89404 | 38912 ft | 475 kts | 27° |
| 2026-04-25 19:45 | -4.71684 | -32.86419 | 38910 ft | 475 kts | 27° |
| 2026-04-25 19:46 | -4.65775 | -32.83432 | 38912 ft | 475 kts | 27° |
| 2026-04-25 19:46 | -4.59876 | -32.80451 | 38914 ft | 474 kts | 27° |
| 2026-04-25 19:47 | -4.54016 | -32.77490 | 38914 ft | 474 kts | 27° |
| 2026-04-25 19:47 | -4.48115 | -32.74509 | 38911 ft | 474 kts | 27° |
| 2026-04-25 19:48 | -4.42215 | -32.71528 | 38913 ft | 474 kts | 27° |
| 2026-04-25 19:48 | -4.36310 | -32.68546 | 38912 ft | 475 kts | 27° |
| 2026-04-25 19:49 | -4.32397 | -32.66570 | 38912 ft | 474 kts | 27° |
| 2026-04-25 19:49 | -4.24543 | -32.62605 | 38910 ft | 474 kts | 27° |
| 2026-04-25 19:50 | -4.15677 | -32.58130 | 38913 ft | 475 kts | 27° |
| 2026-04-25 19:51 | -4.09801 | -32.55165 | 38911 ft | 476 kts | 27° |
| 2026-04-25 19:51 | -4.03891 | -32.52183 | 38912 ft | 476 kts | 27° |
| 2026-04-25 19:52 | -3.97964 | -32.49193 | 38904 ft | 476 kts | 27° |
| 2026-04-25 19:52 | -3.92033 | -32.46201 | 38901 ft | 477 kts | 27° |
| 2026-04-25 19:53 | -3.86101 | -32.43210 | 38902 ft | 478 kts | 27° |
| 2026-04-25 19:53 | -3.80255 | -32.40110 | 38910 ft | 479 kts | 27° |
| 2026-04-25 19:54 | -3.74334 | -32.37023 | 38912 ft | 480 kts | 28° |
| 2026-04-25 19:54 | -3.68419 | -32.33873 | 38911 ft | 482 kts | 28° |
| 2026-04-25 19:55 | -3.62471 | -32.30751 | 38906 ft | 483 kts | 28° |
| 2026-04-25 19:55 | -3.56523 | -32.27601 | 38905 ft | 483 kts | 28° |
| 2026-04-25 19:56 | -3.50573 | -32.24467 | 38902 ft | 484 kts | 28° |
| 2026-04-25 19:56 | -3.44609 | -32.21317 | 38904 ft | 485 kts | 28° |
| 2026-04-25 19:57 | -3.38673 | -32.18187 | 38901 ft | 485 kts | 28° |
| 2026-04-25 19:57 | -3.32698 | -32.15035 | 38904 ft | 486 kts | 28° |
| 2026-04-25 19:58 | -3.26706 | -32.11875 | 38905 ft | 486 kts | 28° |
| 2026-04-25 19:58 | -3.21663 | -32.09262 | 38901 ft | 487 kts | 27° |
| 2026-04-25 19:59 | -3.15667 | -32.06168 | 38902 ft | 488 kts | 28° |
| 2026-04-25 19:59 | -3.09630 | -32.03034 | 38904 ft | 489 kts | 28° |
| 2026-04-25 20:00 | -3.03595 | -31.99915 | 38903 ft | 488 kts | 28° |
| 2026-04-25 20:00 | -2.97556 | -31.96787 | 38903 ft | 488 kts | 28° |
| 2026-04-25 20:01 | -2.88505 | -31.92104 | 38900 ft | 488 kts | 28° |
| 2026-04-25 20:01 | -2.82464 | -31.88978 | 38902 ft | 488 kts | 28° |
| 2026-04-25 20:02 | -2.76435 | -31.85859 | 38902 ft | 488 kts | 28° |
| 2026-04-25 20:02 | -2.70433 | -31.82754 | 38904 ft | 489 kts | 28° |
| 2026-04-25 20:03 | -2.64394 | -31.79630 | 38904 ft | 489 kts | 28° |
| 2026-04-25 20:03 | -2.58335 | -31.76496 | 38905 ft | 490 kts | 28° |
| 2026-04-25 20:04 | -2.52269 | -31.73360 | 38910 ft | 491 kts | 28° |
| 2026-04-25 20:04 | -2.46206 | -31.70225 | 38903 ft | 491 kts | 28° |
| 2026-04-25 20:05 | -2.40137 | -31.67087 | 38905 ft | 492 kts | 28° |
| 2026-04-25 20:05 | -2.34049 | -31.63940 | 38909 ft | 492 kts | 28° |
| 2026-04-25 20:06 | -2.27992 | -31.60808 | 38910 ft | 493 kts | 28° |
| 2026-04-25 20:06 | -2.21893 | -31.57657 | 38911 ft | 494 kts | 28° |
| 2026-04-25 20:07 | -2.15779 | -31.54496 | 38911 ft | 495 kts | 28° |
| 2026-04-25 20:07 | -2.09660 | -31.51334 | 38913 ft | 495 kts | 28° |
| 2026-04-25 20:08 | -2.03537 | -31.48170 | 38914 ft | 495 kts | 28° |
| 2026-04-25 20:08 | -1.97408 | -31.45003 | 38909 ft | 495 kts | 28° |
| 2026-04-25 20:09 | -1.91281 | -31.41838 | 38905 ft | 496 kts | 28° |
| 2026-04-25 20:09 | -1.85149 | -31.38670 | 38912 ft | 497 kts | 28° |
| 2026-04-25 20:10 | -1.79042 | -31.35515 | 38910 ft | 497 kts | 28° |
| 2026-04-25 20:10 | -1.72902 | -31.32344 | 38908 ft | 497 kts | 28° |
| 2026-04-25 20:11 | -1.66753 | -31.29168 | 38910 ft | 497 kts | 28° |
| 2026-04-25 20:11 | -1.60607 | -31.25994 | 38911 ft | 496 kts | 28° |
| 2026-04-25 20:12 | -1.54466 | -31.22823 | 38915 ft | 496 kts | 28° |
| 2026-04-25 20:12 | -1.49378 | -31.20195 | 38910 ft | 496 kts | 28° |
| 2026-04-25 20:13 | -1.42247 | -31.16513 | 38910 ft | 495 kts | 28° |
| 2026-04-25 20:13 | -1.36094 | -31.13336 | 38910 ft | 494 kts | 28° |
| 2026-04-25 20:14 | -1.30023 | -31.10202 | 38906 ft | 494 kts | 28° |
| 2026-04-25 20:14 | -1.23916 | -31.07049 | 38906 ft | 493 kts | 28° |
| 2026-04-25 20:15 | -1.17811 | -31.03898 | 38910 ft | 493 kts | 28° |
| 2026-04-25 20:15 | -1.11756 | -31.00772 | 38906 ft | 492 kts | 28° |
| 2026-04-25 20:16 | -1.05667 | -30.97629 | 38909 ft | 491 kts | 28° |
| 2026-04-25 20:16 | -0.99588 | -30.94491 | 38908 ft | 491 kts | 28° |
| 2026-04-25 20:17 | -0.93517 | -30.91358 | 38906 ft | 490 kts | 28° |
| 2026-04-25 20:17 | -0.87443 | -30.88217 | 38904 ft | 491 kts | 28° |
| 2026-04-25 20:18 | -0.81407 | -30.85095 | 38909 ft | 491 kts | 28° |
| 2026-04-25 20:18 | -0.75323 | -30.81950 | 38906 ft | 491 kts | 28° |
| 2026-04-25 20:19 | -0.69258 | -30.78813 | 38911 ft | 491 kts | 28° |
| 2026-04-25 20:19 | -0.63222 | -30.75692 | 38912 ft | 490 kts | 29° |
| 2026-04-25 20:20 | -0.57167 | -30.72561 | 38911 ft | 490 kts | 29° |
| 2026-04-25 20:20 | -0.51104 | -30.69427 | 38913 ft | 490 kts | 29° |
| 2026-04-25 20:21 | -0.45048 | -30.66296 | 38913 ft | 490 kts | 29° |
| 2026-04-25 20:21 | -0.38979 | -30.63158 | 38915 ft | 491 kts | 29° |
| 2026-04-25 20:22 | -0.34951 | -30.61076 | 38918 ft | 491 kts | 29° |
| 2026-04-25 20:22 | -0.26856 | -30.56890 | 38919 ft | 492 kts | 29° |
| 2026-04-25 20:23 | -0.20772 | -30.53746 | 38918 ft | 492 kts | 29° |
| 2026-04-25 20:23 | -0.14684 | -30.50598 | 38922 ft | 492 kts | 29° |
| 2026-04-25 20:24 | -0.08604 | -30.47455 | 38921 ft | 492 kts | 29° |
| 2026-04-25 20:24 | -0.02555 | -30.44328 | 38923 ft | 492 kts | 29° |
| 2026-04-25 20:25 | 0.03536 | -30.41178 | 38922 ft | 492 kts | 29° |
| 2026-04-25 20:25 | 0.09626 | -30.38031 | 38921 ft | 492 kts | 30° |
| 2026-04-25 20:26 | 0.15702 | -30.34889 | 38921 ft | 492 kts | 30° |
| 2026-04-25 20:26 | 0.21791 | -30.31741 | 38923 ft | 492 kts | 30° |
| 2026-04-25 20:27 | 0.27865 | -30.28600 | 38922 ft | 492 kts | 30° |
| 2026-04-25 20:27 | 0.33902 | -30.25477 | 38918 ft | 491 kts | 30° |
| 2026-04-25 20:28 | 0.39971 | -30.22337 | 38919 ft | 491 kts | 30° |
| 2026-04-25 20:28 | 0.46037 | -30.19200 | 38921 ft | 491 kts | 30° |
| 2026-04-25 20:29 | 0.52107 | -30.16060 | 38922 ft | 491 kts | 30° |
| 2026-04-25 20:29 | 0.58168 | -30.12925 | 38923 ft | 491 kts | 30° |
| 2026-04-25 20:30 | 0.64236 | -30.09786 | 38922 ft | 490 kts | 30° |
| 2026-04-25 20:30 | 0.70286 | -30.06656 | 38922 ft | 489 kts | 30° |
| 2026-04-25 20:31 | 0.76299 | -30.03545 | 38926 ft | 489 kts | 30° |
| 2026-04-25 20:31 | 0.82345 | -30.00417 | 38925 ft | 489 kts | 30° |
| 2026-04-25 20:32 | 0.88394 | -29.97287 | 38925 ft | 489 kts | 30° |
| 2026-04-25 20:32 | 0.94447 | -29.94156 | 38926 ft | 489 kts | 30° |
| 2026-04-25 20:33 | 1.00493 | -29.91027 | 38925 ft | 489 kts | 30° |
| 2026-04-25 20:33 | 1.04499 | -29.88954 | 38925 ft | 489 kts | 30° |
| 2026-04-25 20:34 | 1.12588 | -29.84769 | 38928 ft | 489 kts | 30° |
| 2026-04-25 20:34 | 1.18640 | -29.81637 | 38931 ft | 490 kts | 30° |
| 2026-04-25 20:35 | 1.24693 | -29.78505 | 38929 ft | 489 kts | 30° |
| 2026-04-25 20:35 | 1.30749 | -29.75370 | 38927 ft | 490 kts | 30° |
| 2026-04-25 20:36 | 1.36772 | -29.72253 | 38927 ft | 490 kts | 30° |
| 2026-04-25 20:36 | 1.42827 | -29.69109 | 38924 ft | 490 kts | 30° |
| 2026-04-25 20:37 | 1.48861 | -29.65935 | 38923 ft | 490 kts | 30° |
| 2026-04-25 20:37 | 1.54907 | -29.62778 | 38928 ft | 490 kts | 30° |
| 2026-04-25 20:38 | 1.60963 | -29.59603 | 38928 ft | 492 kts | 30° |
| 2026-04-25 20:38 | 1.67039 | -29.56424 | 38929 ft | 493 kts | 30° |
| 2026-04-25 20:39 | 1.73125 | -29.53236 | 38924 ft | 493 kts | 30° |
| 2026-04-25 20:39 | 1.77158 | -29.51125 | 38924 ft | 493 kts | 30° |
| 2026-04-25 20:40 | 1.85260 | -29.46881 | 38923 ft | 494 kts | 30° |
| 2026-04-25 20:40 | 1.91346 | -29.43694 | 38927 ft | 494 kts | 30° |
| 2026-04-25 20:41 | 1.97439 | -29.40503 | 38924 ft | 494 kts | 30° |
| 2026-04-25 20:41 | 2.03521 | -29.37317 | 38925 ft | 493 kts | 30° |
| 2026-04-25 20:42 | 2.09609 | -29.34127 | 38924 ft | 494 kts | 30° |
| 2026-04-25 20:42 | 2.14668 | -29.31477 | 38922 ft | 494 kts | 30° |
| 2026-04-25 20:43 | 2.20760 | -29.28285 | 38920 ft | 494 kts | 30° |
| 2026-04-25 20:43 | 2.26861 | -29.25088 | 38923 ft | 495 kts | 30° |
| 2026-04-25 20:44 | 2.32959 | -29.21892 | 38920 ft | 495 kts | 30° |
| 2026-04-25 20:44 | 2.39066 | -29.18691 | 38923 ft | 496 kts | 30° |
| 2026-04-25 20:45 | 2.45178 | -29.15488 | 38921 ft | 496 kts | 30° |
| 2026-04-25 20:45 | 2.51288 | -29.12285 | 38925 ft | 496 kts | 30° |
| 2026-04-25 20:46 | 2.57398 | -29.09081 | 38923 ft | 496 kts | 30° |
| 2026-04-25 20:46 | 2.63524 | -29.05869 | 38923 ft | 497 kts | 30° |
| 2026-04-25 20:47 | 2.69609 | -29.02678 | 38926 ft | 497 kts | 30° |
| 2026-04-25 20:47 | 2.75725 | -28.99471 | 38922 ft | 498 kts | 30° |
| 2026-04-25 20:48 | 2.81893 | -28.96235 | 38924 ft | 499 kts | 30° |
| 2026-04-25 20:48 | 2.88036 | -28.93013 | 38926 ft | 499 kts | 30° |
| 2026-04-25 20:49 | 2.94192 | -28.89783 | 38925 ft | 499 kts | 30° |
| 2026-04-25 20:49 | 3.00354 | -28.86550 | 38926 ft | 500 kts | 30° |
| 2026-04-25 20:50 | 3.06517 | -28.83316 | 38926 ft | 500 kts | 30° |
| 2026-04-25 20:50 | 3.12671 | -28.80086 | 38926 ft | 500 kts | 30° |
| 2026-04-25 20:51 | 3.18800 | -28.76880 | 38924 ft | 500 kts | 30° |
| 2026-04-25 20:51 | 3.24969 | -28.73655 | 38926 ft | 501 kts | 30° |
| 2026-04-25 20:52 | 3.30154 | -28.70941 | 38929 ft | 501 kts | 29° |
| 2026-04-25 20:52 | 3.37329 | -28.67189 | 38929 ft | 500 kts | 29° |
| 2026-04-25 20:53 | 3.43499 | -28.63960 | 38934 ft | 501 kts | 29° |
| 2026-04-25 20:53 | 3.49678 | -28.60727 | 38931 ft | 502 kts | 29° |
| 2026-04-25 20:54 | 3.61907 | -28.54326 | 38936 ft | 502 kts | 29° |
| 2026-04-25 20:55 | 3.68059 | -28.51105 | 38938 ft | 502 kts | 29° |
| 2026-04-25 20:55 | 3.74260 | -28.47858 | 38935 ft | 501 kts | 29° |
| 2026-04-25 20:56 | 3.80437 | -28.44623 | 38932 ft | 500 kts | 29° |
| 2026-04-25 20:56 | 3.86618 | -28.41385 | 38935 ft | 500 kts | 29° |
| 2026-04-25 20:57 | 3.92760 | -28.38168 | 38935 ft | 500 kts | 29° |
| 2026-04-25 20:57 | 3.98918 | -28.34941 | 38931 ft | 500 kts | 29° |
| 2026-04-25 20:58 | 4.05089 | -28.31707 | 38934 ft | 500 kts | 29° |
| 2026-04-25 20:58 | 4.11255 | -28.28476 | 38934 ft | 501 kts | 29° |
| 2026-04-25 20:59 | 4.17441 | -28.25232 | 38938 ft | 501 kts | 29° |
| 2026-04-25 20:59 | 4.23576 | -28.22016 | 38937 ft | 500 kts | 28° |
| 2026-04-25 21:00 | 4.27921 | -28.19737 | 38940 ft | 501 kts | 28° |
| 2026-04-25 21:01 | 4.36394 | -28.15293 | 38942 ft | 501 kts | 28° |
| 2026-04-25 21:01 | 4.41607 | -28.12558 | 38944 ft | 501 kts | 28° |
| 2026-04-25 21:02 | 4.47741 | -28.09339 | 38944 ft | 502 kts | 29° |
| 2026-04-25 21:02 | 4.53937 | -28.06088 | 38943 ft | 502 kts | 28° |
| 2026-04-25 21:03 | 4.60086 | -28.02860 | 38948 ft | 501 kts | 28° |
| 2026-04-25 21:03 | 4.66268 | -27.99614 | 38945 ft | 501 kts | 29° |
| 2026-04-25 21:04 | 4.72448 | -27.96369 | 38945 ft | 501 kts | 28° |
| 2026-04-25 21:04 | 4.78629 | -27.93122 | 38930 ft | 500 kts | 28° |
| 2026-04-25 21:05 | 4.83914 | -27.90346 | 38938 ft | 499 kts | 29° |
| 2026-04-25 21:05 | 4.89036 | -27.87655 | 38944 ft | 498 kts | 29° |
| 2026-04-25 21:06 | 4.94045 | -27.85022 | 38940 ft | 497 kts | 28° |
| 2026-04-25 21:06 | 4.99060 | -27.82386 | 38938 ft | 498 kts | 28° |
| 2026-04-25 21:07 | 5.04170 | -27.79700 | 38939 ft | 498 kts | 28° |
| 2026-04-25 21:07 | 5.09292 | -27.77007 | 38938 ft | 498 kts | 28° |
| 2026-04-25 21:08 | 5.14301 | -27.74373 | 38938 ft | 498 kts | 28° |
| 2026-04-25 21:08 | 5.19277 | -27.71755 | 38937 ft | 498 kts | 28° |
| 2026-04-25 21:09 | 5.26862 | -27.67765 | 38936 ft | 498 kts | 28° |
| 2026-04-25 21:09 | 5.32031 | -27.65045 | 38937 ft | 498 kts | 28° |
| 2026-04-25 21:10 | 5.37206 | -27.62321 | 38936 ft | 498 kts | 28° |
| 2026-04-25 21:10 | 5.42226 | -27.59679 | 38935 ft | 498 kts | 28° |
| 2026-04-25 21:11 | 5.47342 | -27.56985 | 38932 ft | 499 kts | 28° |
| 2026-04-25 21:11 | 5.52343 | -27.54352 | 38934 ft | 499 kts | 28° |
| 2026-04-25 21:12 | 5.57302 | -27.51739 | 38935 ft | 500 kts | 28° |
| 2026-04-25 21:12 | 5.61814 | -27.49363 | 38936 ft | 500 kts | 28° |
| 2026-04-25 21:13 | 5.67920 | -27.46145 | 38936 ft | 500 kts | 28° |
| 2026-04-25 21:13 | 5.73299 | -27.43310 | 38935 ft | 500 kts | 28° |
| 2026-04-25 21:14 | 5.78454 | -27.40592 | 38935 ft | 500 kts | 28° |
| 2026-04-25 21:14 | 5.83592 | -27.37883 | 38938 ft | 500 kts | 28° |
| 2026-04-25 21:15 | 5.88854 | -27.35109 | 38936 ft | 499 kts | 28° |
| 2026-04-25 21:15 | 5.93989 | -27.32400 | 38941 ft | 499 kts | 28° |
| 2026-04-25 21:16 | 5.99064 | -27.29722 | 38941 ft | 499 kts | 28° |
| 2026-04-25 21:16 | 6.04214 | -27.27004 | 38937 ft | 499 kts | 28° |
| 2026-04-25 21:17 | 6.10319 | -27.23782 | 38943 ft | 498 kts | 28° |
| 2026-04-25 21:17 | 6.16461 | -27.20539 | 38939 ft | 498 kts | 28° |
| 2026-04-25 21:18 | 6.22604 | -27.17295 | 38944 ft | 498 kts | 28° |
| 2026-04-25 21:18 | 6.28729 | -27.14059 | 38943 ft | 497 kts | 28° |
| 2026-04-25 21:19 | 6.34856 | -27.10822 | 38946 ft | 497 kts | 28° |
| 2026-04-25 21:19 | 6.40965 | -27.07593 | 38945 ft | 496 kts | 28° |
| 2026-04-25 21:20 | 6.46042 | -27.04908 | 38946 ft | 496 kts | 28° |
| 2026-04-25 21:20 | 6.53145 | -27.01148 | 38947 ft | 495 kts | 28° |
| 2026-04-25 21:21 | 6.59250 | -26.97917 | 38946 ft | 495 kts | 29° |
| 2026-04-25 21:21 | 6.65349 | -26.94687 | 38944 ft | 495 kts | 29° |
| 2026-04-25 21:22 | 6.71448 | -26.91458 | 38944 ft | 494 kts | 29° |
| 2026-04-25 21:22 | 6.77490 | -26.88256 | 38946 ft | 494 kts | 29° |
| 2026-04-25 21:23 | 6.83618 | -26.85008 | 38950 ft | 496 kts | 29° |
| 2026-04-25 21:23 | 6.89719 | -26.81773 | 38964 ft | 499 kts | 29° |
| 2026-04-25 21:24 | 6.95843 | -26.78526 | 38960 ft | 495 kts | 29° |
| 2026-04-25 21:24 | 7.01923 | -26.75301 | 38955 ft | 494 kts | 29° |
| 2026-04-25 21:25 | 7.08005 | -26.72074 | 38952 ft | 493 kts | 29° |
| 2026-04-25 21:25 | 7.14074 | -26.68853 | 38950 ft | 493 kts | 29° |
| 2026-04-25 21:26 | 7.20152 | -26.65626 | 38950 ft | 493 kts | 29° |
| 2026-04-25 21:26 | 7.26220 | -26.62403 | 38951 ft | 493 kts | 29° |
| 2026-04-25 21:27 | 7.32290 | -26.59179 | 38950 ft | 494 kts | 29° |
| 2026-04-25 21:27 | 7.38380 | -26.55941 | 38947 ft | 493 kts | 29° |
| 2026-04-25 21:28 | 7.44417 | -26.52733 | 38948 ft | 493 kts | 29° |
| 2026-04-25 21:28 | 7.50526 | -26.49485 | 38952 ft | 493 kts | 29° |
| 2026-04-25 21:29 | 7.56565 | -26.46273 | 38953 ft | 493 kts | 29° |
| 2026-04-25 21:29 | 7.62645 | -26.43037 | 38951 ft | 494 kts | 29° |
| 2026-04-25 21:30 | 7.68728 | -26.39799 | 38951 ft | 494 kts | 29° |
| 2026-04-25 21:30 | 7.73780 | -26.37108 | 38951 ft | 494 kts | 29° |
| 2026-04-25 21:31 | 7.80891 | -26.33323 | 38954 ft | 494 kts | 29° |
| 2026-04-25 21:31 | 7.86929 | -26.30105 | 38951 ft | 494 kts | 29° |
| 2026-04-25 21:32 | 7.93023 | -26.26858 | 38953 ft | 495 kts | 29° |
| 2026-04-25 21:32 | 7.99116 | -26.23609 | 38954 ft | 495 kts | 29° |
| 2026-04-25 21:33 | 8.05210 | -26.20360 | 38955 ft | 495 kts | 29° |
| 2026-04-25 21:33 | 8.11296 | -26.17112 | 38954 ft | 495 kts | 29° |
| 2026-04-25 21:34 | 8.17354 | -26.13880 | 38952 ft | 495 kts | 29° |
| 2026-04-25 21:34 | 8.23452 | -26.10623 | 38953 ft | 495 kts | 29° |
| 2026-04-25 21:35 | 8.29545 | -26.07370 | 38955 ft | 496 kts | 29° |
| 2026-04-25 21:35 | 8.34614 | -26.04662 | 38954 ft | 496 kts | 29° |
| 2026-04-25 21:36 | 8.40718 | -26.01402 | 38953 ft | 496 kts | 29° |
| 2026-04-25 21:36 | 8.46820 | -25.98141 | 38951 ft | 495 kts | 29° |
| 2026-04-25 21:37 | 8.51886 | -25.95434 | 38953 ft | 496 kts | 29° |
| 2026-04-25 21:37 | 8.59028 | -25.91615 | 38954 ft | 496 kts | 29° |
| 2026-04-25 21:38 | 8.65086 | -25.88376 | 38953 ft | 496 kts | 29° |
| 2026-04-25 21:38 | 8.71196 | -25.85106 | 38956 ft | 496 kts | 29° |
| 2026-04-25 21:39 | 8.77307 | -25.81835 | 38957 ft | 497 kts | 29° |
| 2026-04-25 21:39 | 8.83421 | -25.78561 | 38956 ft | 497 kts | 29° |
| 2026-04-25 21:40 | 8.89525 | -25.75291 | 38953 ft | 497 kts | 29° |
| 2026-04-25 21:40 | 8.95654 | -25.72007 | 38957 ft | 497 kts | 29° |
| 2026-04-25 21:41 | 9.01762 | -25.68732 | 38959 ft | 497 kts | 29° |
| 2026-04-25 21:41 | 9.07832 | -25.65477 | 38959 ft | 497 kts | 28° |
| 2026-04-25 21:42 | 9.13982 | -25.62177 | 38956 ft | 497 kts | 29° |
| 2026-04-25 21:42 | 9.20063 | -25.58914 | 38956 ft | 497 kts | 29° |
| 2026-04-25 21:43 | 9.26183 | -25.55628 | 38955 ft | 498 kts | 28° |
| 2026-04-25 21:43 | 9.32298 | -25.52344 | 38957 ft | 498 kts | 28° |
| 2026-04-25 21:44 | 9.38424 | -25.49052 | 38958 ft | 498 kts | 28° |
| 2026-04-25 21:45 | 9.47603 | -25.44117 | 38951 ft | 498 kts | 28° |
| 2026-04-25 21:45 | 9.53730 | -25.40822 | 38959 ft | 498 kts | 28° |
| 2026-04-25 21:46 | 9.59845 | -25.37531 | 38961 ft | 498 kts | 28° |
| 2026-04-25 21:46 | 9.65959 | -25.34239 | 38960 ft | 498 kts | 28° |
| 2026-04-25 21:47 | 9.72041 | -25.30964 | 38961 ft | 498 kts | 28° |
| 2026-04-25 21:47 | 9.78192 | -25.27650 | 38961 ft | 498 kts | 28° |
| 2026-04-25 21:48 | 9.84273 | -25.24372 | 38959 ft | 498 kts | 28° |
| 2026-04-25 21:48 | 9.90395 | -25.21071 | 38961 ft | 498 kts | 28° |
| 2026-04-25 21:49 | 9.96504 | -25.17773 | 38959 ft | 498 kts | 28° |
| 2026-04-25 21:49 | 10.02623 | -25.14467 | 38961 ft | 498 kts | 28° |
| 2026-04-25 21:50 | 10.08701 | -25.11182 | 38961 ft | 498 kts | 28° |
| 2026-04-25 21:50 | 10.14812 | -25.07877 | 38958 ft | 498 kts | 28° |
| 2026-04-25 21:51 | 10.20934 | -25.04566 | 38959 ft | 498 kts | 28° |
| 2026-04-25 21:51 | 10.27048 | -25.01257 | 38961 ft | 498 kts | 28° |
| 2026-04-25 21:52 | 10.33175 | -24.97940 | 38961 ft | 498 kts | 28° |
| 2026-04-25 21:52 | 10.39266 | -24.94641 | 38966 ft | 498 kts | 28° |
| 2026-04-25 21:53 | 10.45391 | -24.91322 | 38965 ft | 498 kts | 28° |
| 2026-04-25 21:53 | 10.51517 | -24.88001 | 38966 ft | 498 kts | 28° |
| 2026-04-25 21:54 | 10.57633 | -24.84684 | 38965 ft | 499 kts | 28° |
| 2026-04-25 21:54 | 10.63761 | -24.81359 | 38963 ft | 499 kts | 28° |
| 2026-04-25 21:55 | 10.69891 | -24.78031 | 38966 ft | 499 kts | 28° |
| 2026-04-25 21:55 | 10.75659 | -24.74898 | 38966 ft | 499 kts | 28° |
| 2026-04-25 21:56 | 10.80997 | -24.71998 | 38968 ft | 498 kts | 27° |
| 2026-04-25 21:56 | 10.86163 | -24.69190 | 38966 ft | 498 kts | 27° |
| 2026-04-25 21:57 | 10.91430 | -24.66325 | 38965 ft | 499 kts | 27° |
| 2026-04-25 21:57 | 10.96944 | -24.63326 | 38971 ft | 498 kts | 27° |
| 2026-04-25 21:58 | 11.03061 | -24.59997 | 38968 ft | 498 kts | 27° |
| 2026-04-25 21:58 | 11.09166 | -24.56673 | 38967 ft | 498 kts | 27° |
| 2026-04-25 21:59 | 11.15279 | -24.53342 | 38968 ft | 498 kts | 27° |
| 2026-04-25 21:59 | 11.21380 | -24.50017 | 38966 ft | 498 kts | 27° |
| 2026-04-25 22:00 | 11.30534 | -24.45025 | 38966 ft | 497 kts | 27° |
| 2026-04-25 22:00 | 11.36604 | -24.41713 | 38969 ft | 498 kts | 27° |
| 2026-04-25 22:01 | 11.42706 | -24.38381 | 38972 ft | 498 kts | 27° |
| 2026-04-25 22:01 | 11.47825 | -24.35585 | 38974 ft | 498 kts | 27° |
| 2026-04-25 22:02 | 11.54924 | -24.31706 | 38968 ft | 498 kts | 27° |
| 2026-04-25 22:02 | 11.61028 | -24.28369 | 38971 ft | 498 kts | 27° |
| 2026-04-25 22:03 | 11.66933 | -24.25138 | 38971 ft | 497 kts | 27° |
| 2026-04-25 22:03 | 11.71910 | -24.22414 | 38969 ft | 497 kts | 27° |
| 2026-04-25 22:04 | 11.77162 | -24.19539 | 38970 ft | 497 kts | 27° |
| 2026-04-25 22:04 | 11.82080 | -24.16845 | 38965 ft | 497 kts | 27° |
| 2026-04-25 22:05 | 11.87478 | -24.13886 | 38968 ft | 498 kts | 26° |
| 2026-04-25 22:05 | 11.93586 | -24.10538 | 38974 ft | 498 kts | 26° |
| 2026-04-25 22:06 | 11.99664 | -24.07204 | 38973 ft | 497 kts | 26° |
| 2026-04-25 22:06 | 12.05754 | -24.03862 | 38973 ft | 497 kts | 26° |
| 2026-04-25 22:07 | 12.10866 | -24.01055 | 38973 ft | 497 kts | 26° |
| 2026-04-25 22:07 | 12.17939 | -23.97169 | 38974 ft | 496 kts | 26° |
| 2026-04-25 22:08 | 12.24034 | -23.93820 | 38976 ft | 497 kts | 26° |
| 2026-04-25 22:08 | 12.30135 | -23.90464 | 38979 ft | 497 kts | 26° |
| 2026-04-25 22:09 | 12.36225 | -23.87113 | 38979 ft | 497 kts | 26° |
| 2026-04-25 22:09 | 12.42290 | -23.83774 | 38979 ft | 498 kts | 26° |
| 2026-04-25 22:10 | 12.48426 | -23.80394 | 38980 ft | 498 kts | 26° |
| 2026-04-25 22:10 | 12.54495 | -23.77049 | 38975 ft | 497 kts | 26° |
| 2026-04-25 22:11 | 12.60584 | -23.73691 | 38977 ft | 498 kts | 26° |
| 2026-04-25 22:11 | 12.66698 | -23.70318 | 39319 ft | 497 kts | 26° |
| 2026-04-25 22:12 | 12.69737 | -23.68640 | 39611 ft | 496 kts | 26° |
| 2026-04-25 22:12 | 12.72770 | -23.66965 | 39864 ft | 495 kts | 26° |
| 2026-04-25 22:12 | 12.75802 | -23.65292 | 40124 ft | 494 kts | 26° |
| 2026-04-25 22:12 | 12.77804 | -23.64186 | 40282 ft | 494 kts | 26° |
| 2026-04-25 22:13 | 12.81842 | -23.61954 | 40618 ft | 493 kts | 26° |
| 2026-04-25 22:13 | 12.84851 | -23.60291 | 40843 ft | 492 kts | 26° |
| 2026-04-25 22:13 | 12.87882 | -23.58616 | 40965 ft | 494 kts | 26° |
| 2026-04-25 22:13 | 12.90876 | -23.56960 | 40958 ft | 496 kts | 26° |
| 2026-04-25 22:14 | 12.96920 | -23.53615 | 40960 ft | 491 kts | 26° |
| 2026-04-25 22:14 | 13.02932 | -23.50288 | 40964 ft | 490 kts | 26° |
| 2026-04-25 22:15 | 13.08934 | -23.46963 | 40964 ft | 491 kts | 26° |
| 2026-04-25 22:16 | 13.17961 | -23.41961 | 40963 ft | 492 kts | 26° |
| 2026-04-25 22:16 | 13.23995 | -23.38613 | 40966 ft | 493 kts | 26° |
| 2026-04-25 22:17 | 13.29992 | -23.35285 | 40968 ft | 492 kts | 26° |
| 2026-04-25 22:17 | 13.36014 | -23.31941 | 40968 ft | 491 kts | 26° |
| 2026-04-25 22:18 | 13.42017 | -23.28606 | 40966 ft | 491 kts | 26° |
| 2026-04-25 22:18 | 13.48170 | -23.25651 | 41014 ft | 485 kts | 12° |
| 2026-04-25 22:18 | 13.51477 | -23.25009 | 41007 ft | 482 kts | 0° |
| 2026-04-25 22:19 | 13.54815 | -23.25013 | 41001 ft | 477 kts | 349° |
| 2026-04-25 22:19 | 13.61356 | -23.26053 | 40980 ft | 476 kts | 348° |
| 2026-04-25 22:20 | 13.67889 | -23.27137 | 40980 ft | 474 kts | 347° |
| 2026-04-25 22:20 | 13.74361 | -23.28217 | 40984 ft | 473 kts | 348° |
| 2026-04-25 22:21 | 13.80857 | -23.29295 | 40984 ft | 472 kts | 348° |
| 2026-04-25 22:21 | 13.86262 | -23.30198 | 40982 ft | 473 kts | 348° |
| 2026-04-25 22:22 | 13.92760 | -23.31278 | 40981 ft | 474 kts | 348° |
| 2026-04-25 22:22 | 13.99285 | -23.32367 | 40986 ft | 475 kts | 348° |
| 2026-04-25 22:23 | 14.05807 | -23.33454 | 40985 ft | 474 kts | 348° |
| 2026-04-25 22:23 | 14.12307 | -23.34539 | 40980 ft | 473 kts | 348° |
| 2026-04-25 22:24 | 14.18817 | -23.35626 | 40979 ft | 473 kts | 347° |
| 2026-04-25 22:24 | 14.25321 | -23.36713 | 40976 ft | 474 kts | 347° |
| 2026-04-25 22:25 | 14.31796 | -23.37795 | 40972 ft | 474 kts | 347° |
| 2026-04-25 22:25 | 14.38293 | -23.38882 | 40970 ft | 473 kts | 347° |
| 2026-04-25 22:26 | 14.44784 | -23.39968 | 40970 ft | 471 kts | 347° |
| 2026-04-25 22:26 | 14.51268 | -23.41054 | 40961 ft | 470 kts | 347° |
| 2026-04-25 22:27 | 14.57730 | -23.42137 | 40960 ft | 471 kts | 347° |
| 2026-04-25 22:27 | 14.64169 | -23.43217 | 40960 ft | 471 kts | 347° |
| 2026-04-25 22:28 | 14.70635 | -23.44302 | 40962 ft | 471 kts | 347° |
| 2026-04-25 22:28 | 14.77111 | -23.45389 | 40967 ft | 471 kts | 347° |
| 2026-04-25 22:29 | 14.83585 | -23.46476 | 40975 ft | 472 kts | 347° |
| 2026-04-25 22:29 | 14.90080 | -23.47568 | 40975 ft | 473 kts | 347° |
| 2026-04-25 22:30 | 14.96689 | -23.47521 | 41006 ft | 482 kts | 8° |
| 2026-04-25 22:30 | 14.99976 | -23.46766 | 40973 ft | 484 kts | 9° |
| 2026-04-25 22:30 | 15.05427 | -23.45440 | 40977 ft | 483 kts | 9° |
| 2026-04-25 22:31 | 15.13054 | -23.43607 | 40971 ft | 484 kts | 9° |
| 2026-04-25 22:31 | 15.19609 | -23.42025 | 40973 ft | 484 kts | 9° |
| 2026-04-25 22:32 | 15.26182 | -23.40440 | 40976 ft | 483 kts | 9° |
| 2026-04-25 22:32 | 15.29440 | -23.39655 | 40358 ft | 483 kts | 9° |
| 2026-04-25 22:32 | 15.32734 | -23.38861 | 39571 ft | 487 kts | 9° |
| 2026-04-25 22:33 | 15.36059 | -23.38059 | 38617 ft | 495 kts | 9° |
| 2026-04-25 22:33 | 15.39425 | -23.37246 | 37836 ft | 496 kts | 9° |
| 2026-04-25 22:33 | 15.42791 | -23.36431 | 37062 ft | 496 kts | 9° |
| 2026-04-25 22:33 | 15.46121 | -23.35626 | 36095 ft | 500 kts | 9° |
| 2026-04-25 22:34 | 15.49578 | -23.34793 | 35173 ft | 504 kts | 9° |
| 2026-04-25 22:34 | 15.52954 | -23.33976 | 34361 ft | 504 kts | 9° |
| 2026-04-25 22:34 | 15.56379 | -23.33145 | 33282 ft | 507 kts | 9° |
| 2026-04-25 22:34 | 15.59788 | -23.32158 | 32375 ft | 510 kts | 17° |
| 2026-04-25 22:35 | 15.63052 | -23.30785 | 31449 ft | 500 kts | 18° |
| 2026-04-25 22:35 | 15.66251 | -23.29374 | 30663 ft | 496 kts | 19° |
| 2026-04-25 22:35 | 15.69410 | -23.27959 | 29477 ft | 499 kts | 18° |
| 2026-04-25 22:35 | 15.72608 | -23.26555 | 28744 ft | 492 kts | 18° |
| 2026-04-25 22:36 | 15.75726 | -23.25190 | 27484 ft | 483 kts | 18° |
| 2026-04-25 22:36 | 15.78840 | -23.23820 | 25939 ft | 482 kts | 19° |
| 2026-04-25 22:36 | 15.81882 | -23.22472 | 24816 ft | 474 kts | 19° |
| 2026-04-25 22:36 | 15.84923 | -23.21130 | 24012 ft | 471 kts | 19° |
| 2026-04-25 22:37 | 15.87934 | -23.19806 | 23166 ft | 469 kts | 19° |
| 2026-04-25 22:37 | 15.90884 | -23.18505 | 22313 ft | 464 kts | 20° |
| 2026-04-25 22:37 | 15.93885 | -23.17178 | 20944 ft | 465 kts | 20° |
| 2026-04-25 22:37 | 15.96900 | -23.15851 | 19523 ft | 480 kts | 20° |
| 2026-04-25 22:38 | 15.99949 | -23.14501 | 18683 ft | 473 kts | 21° |
| 2026-04-25 22:38 | 16.02961 | -23.13166 | 17654 ft | 470 kts | 21° |
| 2026-04-25 22:38 | 16.05953 | -23.11845 | 16761 ft | 463 kts | 21° |
| 2026-04-25 22:38 | 16.08901 | -23.10544 | 15843 ft | 457 kts | 21° |
| 2026-04-25 22:39 | 16.11799 | -23.09261 | 14961 ft | 451 kts | 21° |
| 2026-04-25 22:39 | 16.14667 | -23.07992 | 14088 ft | 445 kts | 21° |
| 2026-04-25 22:39 | 16.17509 | -23.06734 | 13146 ft | 439 kts | 21° |
| 2026-04-25 22:39 | 16.20299 | -23.05498 | 12161 ft | 434 kts | 21° |
| 2026-04-25 22:40 | 16.23068 | -23.04273 | 11201 ft | 430 kts | 20° |
| 2026-04-25 22:40 | 16.25806 | -23.03060 | 10288 ft | 424 kts | 20° |
| 2026-04-25 22:40 | 16.28513 | -23.01861 | 9333 ft | 420 kts | 20° |
| 2026-04-25 22:40 | 16.31154 | -23.00689 | 8465 ft | 412 kts | 20° |
| 2026-04-25 22:41 | 16.33765 | -22.99531 | 7570 ft | 405 kts | 20° |
| 2026-04-25 22:41 | 16.36260 | -22.98420 | 5926 ft | 381 kts | 20° |
| 2026-04-25 22:41 | 16.38518 | -22.97418 | 5728 ft | 323 kts | 20° |
| 2026-04-25 22:41 | 16.40420 | -22.96567 | 5655 ft | 274 kts | 19° |
| 2026-04-25 22:42 | 16.42055 | -22.95843 | 5559 ft | 243 kts | 19° |
| 2026-04-25 22:42 | 16.43662 | -22.95144 | 5475 ft | 251 kts | 19° |
| 2026-04-25 22:42 | 16.45298 | -22.94695 | 5293 ft | 243 kts | 356° |
| 2026-04-25 22:42 | 16.46980 | -22.94761 | 5028 ft | 241 kts | 357° |
| 2026-04-25 22:43 | 16.48639 | -22.94732 | 4771 ft | 235 kts | 358° |
| 2026-04-25 22:43 | 16.50263 | -22.94725 | 4468 ft | 234 kts | 357° |
| 2026-04-25 22:43 | 16.51877 | -22.94741 | 4159 ft | 226 kts | 357° |
| 2026-04-25 22:43 | 16.53380 | -22.94754 | 3856 ft | 202 kts | 358° |
| 2026-04-25 22:44 | 16.54710 | -22.94764 | 3600 ft | 184 kts | 359° |
| 2026-04-25 22:44 | 16.55960 | -22.94774 | 3359 ft | 177 kts | 359° |
| 2026-04-25 22:44 | 16.57169 | -22.94784 | 3125 ft | 169 kts | 0° |
| 2026-04-25 22:44 | 16.58328 | -22.94790 | 2894 ft | 164 kts | 0° |
| 2026-04-25 22:45 | 16.59456 | -22.94797 | 2687 ft | 160 kts | 0° |
| 2026-04-25 22:45 | 16.60539 | -22.94810 | 2469 ft | 155 kts | 2° |
| 2026-04-25 22:45 | 16.61600 | -22.94812 | 2276 ft | 150 kts | 1° |
| 2026-04-25 22:45 | 16.62631 | -22.94820 | 2079 ft | 145 kts | 1° |
| 2026-04-25 22:46 | 16.63629 | -22.94828 | 1886 ft | 142 kts | 2° |
| 2026-04-25 22:46 | 16.64600 | -22.94835 | 1694 ft | 136 kts | 2° |
| 2026-04-25 22:46 | 16.65520 | -22.94840 | 1538 ft | 132 kts | 3° |
| 2026-04-25 22:46 | 16.66470 | -22.94845 | 1362 ft | 138 kts | 2° |
| 2026-04-25 22:47 | 16.67445 | -22.94853 | 1181 ft | 144 kts | 2° |
| 2026-04-25 22:47 | 16.68457 | -22.94860 | 979 ft | 144 kts | 2° |
| 2026-04-25 22:47 | 16.69462 | -22.94864 | 791 ft | 148 kts | 2° |
| 2026-04-25 22:47 | 16.70491 | -22.94875 | 589 ft | 147 kts | 3° |
| 2026-04-25 22:48 | 16.71473 | -22.94879 | 411 ft | 138 kts | 0° |
| 2026-04-25 22:48 | 16.72464 | -22.94890 | 251 ft | 143 kts | 2° |
| 2026-04-25 22:48 | 16.73372 | -22.94899 | 210 ft | 107 kts | 3° |
| 2026-04-25 22:48 | 16.73865 | -22.94894 | 203 ft | 56 kts | 359° |
| 2026-04-25 22:49 | 16.74173 | -22.94896 | 192 ft | 28 kts | 2° |
| 2026-04-25 22:49 | 16.74327 | -22.94896 | 193 ft | 21 kts | 358° |
| 2026-04-25 22:49 | 16.74499 | -22.94900 | 206 ft | 31 kts | 359° |
| 2026-04-25 22:49 | 16.74711 | -22.94903 | 193 ft | 29 kts | 360° |
| 2026-04-25 22:50 | 16.74909 | -22.94902 | 204 ft | 28 kts | 359° |
| 2026-04-25 22:50 | 16.75049 | -22.94885 | 197 ft | 6 kts | 49° |
| 2026-04-25 22:50 | 16.75050 | -22.94865 | 202 ft | 5 kts | 100° |
| 2026-04-25 22:50 | 16.75018 | -22.94785 | 201 ft | 19 kts | 118° |
| 2026-04-25 22:51 | 16.74903 | -22.94705 | 192 ft | 21 kts | 181° |
| 2026-04-25 22:51 | 16.74759 | -22.94704 | 197 ft | 21 kts | 178° |
| 2026-04-25 22:51 | 16.74612 | -22.94701 | 201 ft | 21 kts | 179° |
| 2026-04-25 22:51 | 16.74436 | -22.94702 | 203 ft | 30 kts | 180° |
| 2026-04-25 22:52 | 16.74222 | -22.94702 | 200 ft | 31 kts | 180° |
| 2026-04-25 22:52 | 16.74006 | -22.94699 | 201 ft | 31 kts | 179° |
| 2026-04-25 22:52 | 16.73790 | -22.94697 | 206 ft | 31 kts | 179° |
| 2026-04-25 22:52 | 16.73658 | -22.94687 | 205 ft | 19 kts | 150° |
| 2026-04-25 22:53 | 16.73548 | -22.94596 | 204 ft | 12 kts | 178° |
| 2026-04-25 22:53 | 16.73485 | -22.94597 | 204 ft | 10 kts | 180° |
| 2026-04-25 22:53 | 16.73383 | -22.94596 | 196 ft | 17 kts | 179° |
| 2026-04-25 22:53 | 16.73258 | -22.94594 | 203 ft | 19 kts | 179° |
| 2026-04-25 22:54 | 16.73166 | -22.94584 | 208 ft | 5 kts | 136° |
| 2026-04-25 22:54 | 16.73165 | -22.94574 | 208 ft | 1 kts | 90° |
| 2026-04-25 22:54 | 16.73169 | -22.94532 | 200 ft | 10 kts | 88° |
| 2026-04-25 22:54 | 16.73169 | -22.94509 | 196 ft | 2 kts | 90° |
| 2026-04-25 22:55 | 16.73169 | -22.94504 | 196 ft | 0 kts | 89° |